Time;durP1;ratioP1;P1;durP2;ratioP2;P2;SDS_P1;SDS_P2;PMS_P1;PMS_P2;Temp;Humidity;BMP_temperature;BMP_pressure;BME280_temperature;BME280_humidity;BME280_pressure;Samples;Min_cycle;Max_cycle;Signal;HPM_P1;HPM_P2
2022/10/12 00:02:26;;;;;;;;;81.00;65.60;;;;;;;;5164457;28;8789;-83
2022/10/12 00:04:58;;;;;;;;;68.60;57.60;;;;;;;;5180611;28;8779;-84
2022/10/12 00:07:29;;;;;;;;;69.80;58.60;;;;;;;;5164041;28;8918;-81
2022/10/12 00:10:19;;;;;;;;;47.80;44.00;;;;;;;;5164021;28;8847;-79
2022/10/12 00:13:09;;;;;;;;;42.40;40.20;;;;;;;;5163642;28;8874;-79
2022/10/12 00:15:41;;;;;;;;;39.20;38.60;;;;;;;;5180305;28;8849;-81
2022/10/12 00:18:31;;;;;;;;;39.60;38.40;;;;;;;;5177477;28;9018;-80
2022/10/12 00:21:06;;;;;;;;;83.20;66.40;;;;;;;;5148051;28;9545;-80
2022/10/12 00:23:38;;;;;;;;;1.20;1.00;;;;;;;;5164036;28;8791;-78
2022/10/12 00:26:11;;;;;;;;;66.60;55.80;;;;;;;;5163541;28;8787;-79
2022/10/12 00:28:42;;;;;;;;;67.00;57.00;;;;;;;;5180435;28;8833;-80
2022/10/12 00:31:15;;;;;;;;;70.20;56.40;;;;;;;;5163816;28;8881;-79
2022/10/12 00:33:47;;;;;;;;;83.25;68.25;;;;;;;;5158756;28;8771;-77
2022/10/12 00:36:23;;;;;;;;;64.40;53.80;;;;;;;;5159649;28;8934;-79
2022/10/12 00:38:54;;;;;;;;;13.00;13.00;;;;;;;;5172032;28;8775;-83
2022/10/12 00:41:44;;;;;;;;;11.20;11.20;;;;;;;;5171946;28;8816;-83
2022/10/12 00:44:36;;;;;;;;;9.40;9.40;;;;;;;;5180442;28;8807;-87
2022/10/12 00:47:15;;;;;;;;;9.80;9.80;;;;;;;;5147505;28;8803;-80
2022/10/12 00:49:59;;;;;;;;;6.00;6.00;;;;;;;;5147347;28;8780;-84
2022/10/12 00:52:35;;;;;;;;;6.00;6.00;;;;;;;;5147352;28;8839;-79
2022/10/12 00:55:08;;;;;;;;;7.80;7.80;;;;;;;;5163493;28;8787;-71
2022/10/12 00:57:39;;;;;;;;;9.80;9.80;;;;;;;;5142451;28;8818;-71
2022/10/12 01:00:11;;;;;;;;;75.00;56.00;;;;;;;;5144250;28;8841;-70
2022/10/12 01:02:42;;;;;;;;;100.00;81.80;;;;;;;;5127135;28;8924;-70
2022/10/12 01:05:14;;;;;;;;;90.60;66.80;;;;;;;;5142977;28;8806;-70
2022/10/12 01:07:45;;;;;;;;;87.60;69.40;;;;;;;;5142959;28;8802;-70
2022/10/12 01:10:16;;;;;;;;;79.20;63.00;;;;;;;;5159450;28;9541;-71
2022/10/12 01:12:48;;;;;;;;;65.60;54.80;;;;;;;;5162741;28;8792;-69
2022/10/12 01:15:20;;;;;;;;;88.40;70.60;;;;;;;;5162811;28;8795;-71
2022/10/12 01:18:18;;;;;;;;;51.80;45.00;;;;;;;;5145352;28;8813;-69
2022/10/12 01:21:07;;;;;;;;;61.60;48.20;;;;;;;;5143365;28;8882;-69
2022/10/12 01:23:47;;;;;;;;;21.40;20.60;;;;;;;;5142929;28;8794;-71
2022/10/12 01:26:30;;;;;;;;;32.00;27.60;;;;;;;;5126791;28;8807;-70
2022/10/12 01:29:04;;;;;;;;;21.60;17.80;;;;;;;;5145385;28;8797;-71
2022/10/12 01:31:54;;;;;;;;;17.40;17.40;;;;;;;;5162778;28;8796;-71
2022/10/12 01:34:44;;;;;;;;;11.00;10.00;;;;;;;;5162920;28;8790;-71
2022/10/12 01:37:18;;;;;;;;;12.00;12.00;;;;;;;;5146493;28;8792;-71
2022/10/12 01:39:52;;;;;;;;;19.60;19.60;;;;;;;;5146708;28;8965;-70
2022/10/12 01:42:30;;;;;;;;;13.80;13.80;;;;;;;;5162862;28;8799;-70
2022/10/12 01:45:09;;;;;;;;;18.00;18.00;;;;;;;;5162714;28;8805;-70
2022/10/12 01:47:42;;;;;;;;;40.80;40.40;;;;;;;;5163425;28;8799;-71
2022/10/12 01:50:14;;;;;;;;;34.20;34.20;;;;;;;;5162173;28;8775;-70
2022/10/12 01:52:54;;;;;;;;;28.00;26.80;;;;;;;;5147176;28;8783;-70
2022/10/12 01:55:32;;;;;;;;;21.40;21.40;;;;;;;;5150254;28;8803;-70
2022/10/12 01:58:35;;;;;;;;;13.00;13.00;;;;;;;;5159909;28;8937;-70
2022/10/12 02:01:13;;;;;;;;;36.00;34.40;;;;;;;;5162715;28;8798;-69
2022/10/12 02:03:50;;;;;;;;;32.20;32.00;;;;;;;;5147631;28;8839;-69
2022/10/12 02:06:27;;;;;;;;;14.40;13.60;;;;;;;;5146254;28;8814;-70
2022/10/12 02:09:07;;;;;;;;;4.00;4.00;;;;;;;;5146943;28;8810;-69
2022/10/12 02:11:39;;;;;;;;;10.00;10.00;;;;;;;;5178194;28;8835;-71
2022/10/12 02:14:30;;;;;;;;;4.20;4.20;;;;;;;;5166441;28;8787;-71
2022/10/12 02:17:04;;;;;;;;;13.20;13.20;;;;;;;;5165660;28;8877;-71
2022/10/12 02:19:38;;;;;;;;;14.00;14.00;;;;;;;;5149984;28;8788;-71
2022/10/12 02:22:35;;;;;;;;;7.00;7.00;;;;;;;;5166511;28;8947;-71
2022/10/12 02:25:26;;;;;;;;;9.60;9.60;;;;;;;;5166285;28;8799;-70
2022/10/12 02:28:09;;;;;;;;;13.60;12.80;;;;;;;;5149842;28;8799;-70
2022/10/12 02:31:00;;;;;;;;;20.80;20.80;;;;;;;;5165699;28;8850;-69
2022/10/12 02:33:37;;;;;;;;;20.80;20.80;;;;;;;;5165394;28;8792;-70
2022/10/12 02:36:11;;;;;;;;;24.80;23.80;;;;;;;;5149577;28;9581;-70
2022/10/12 02:38:46;;;;;;;;;23.60;23.60;;;;;;;;5165555;28;8796;-69
2022/10/12 02:41:20;;;;;;;;;11.80;11.80;;;;;;;;5165741;28;8814;-69
2022/10/12 02:43:55;;;;;;;;;16.60;16.60;;;;;;;;5165315;28;8830;-69
2022/10/12 02:46:28;;;;;;;;;20.00;20.00;;;;;;;;5167371;28;8795;-69
2022/10/12 02:48:59;;;;;;;;;18.20;18.20;;;;;;;;5149465;28;8806;-69
2022/10/12 02:51:31;;;;;;;;;21.00;21.00;;;;;;;;5165404;28;8838;-69
2022/10/12 02:54:02;;;;;;;;;13.00;13.00;;;;;;;;5165502;28;9534;-69
2022/10/12 02:56:33;;;;;;;;;22.60;22.40;;;;;;;;5165110;28;8919;-70
2022/10/12 02:59:04;;;;;;;;;33.80;33.80;;;;;;;;5148880;28;8871;-69
2022/10/12 03:01:54;;;;;;;;;16.20;16.20;;;;;;;;5179427;28;8811;-69
2022/10/12 03:04:25;;;;;;;;;13.60;13.60;;;;;;;;5165010;28;8807;-71
2022/10/12 03:06:56;;;;;;;;;5.75;5.75;;;;;;;;5181416;28;8814;-72
2022/10/12 03:09:27;;;;;;;;;5.80;5.80;;;;;;;;5166323;28;10684;-73
2022/10/12 03:11:58;;;;;;;;;6.80;6.80;;;;;;;;5165182;28;8823;-73
2022/10/12 03:14:29;;;;;;;;;7.60;7.60;;;;;;;;5165064;28;9503;-72
2022/10/12 03:17:01;;;;;;;;;9.40;9.40;;;;;;;;5148798;28;8799;-72
2022/10/12 03:19:32;;;;;;;;;7.80;7.80;;;;;;;;5149761;28;9475;-71
2022/10/12 03:22:03;;;;;;;;;6.00;6.00;;;;;;;;5166483;28;8830;-70
2022/10/12 03:24:34;;;;;;;;;6.25;6.25;;;;;;;;5164991;28;8791;-69
2022/10/12 03:27:23;;;;;;;;;5.80;5.80;;;;;;;;5150629;28;10423;-70
2022/10/12 03:29:54;;;;;;;;;3.20;3.20;;;;;;;;5148250;28;8815;-71
2022/10/12 03:32:26;;;;;;;;;5.60;5.60;;;;;;;;5180466;28;8819;-71
2022/10/12 03:34:57;;;;;;;;;12.60;12.60;;;;;;;;5164045;28;8846;-74
2022/10/12 03:37:28;;;;;;;;;8.20;8.20;;;;;;;;5164183;28;8808;-70
2022/10/12 03:39:59;;;;;;;;;7.40;7.40;;;;;;;;5163918;28;9561;-70
2022/10/12 03:42:31;;;;;;;;;6.20;6.20;;;;;;;;5163107;28;8948;-70
2022/10/12 03:45:02;;;;;;;;;11.60;11.60;;;;;;;;5164333;28;8799;-70
2022/10/12 03:47:34;;;;;;;;;12.80;12.80;;;;;;;;5164228;28;8805;-70
2022/10/12 03:50:05;;;;;;;;;29.60;29.00;;;;;;;;5164143;28;8787;-71
2022/10/12 03:52:36;;;;;;;;;30.60;30.00;;;;;;;;5163682;28;8822;-70
2022/10/12 03:55:08;;;;;;;;;25.80;25.80;;;;;;;;5164445;28;8830;-70
2022/10/12 03:57:39;;;;;;;;;26.40;26.40;;;;;;;;5162359;28;8827;-69
2022/10/12 04:00:11;;;;;;;;;14.00;13.60;;;;;;;;5145670;28;8909;-71
2022/10/12 04:02:43;;;;;;;;;7.60;7.60;;;;;;;;5146156;28;8799;-71
2022/10/12 04:05:14;;;;;;;;;13.60;13.40;;;;;;;;5162208;28;8819;-70
2022/10/12 04:07:45;;;;;;;;;79.80;58.20;;;;;;;;5141536;28;8844;-72
2022/10/12 04:10:16;;;;;;;;;18.00;18.00;;;;;;;;5143282;28;8790;-72
2022/10/12 04:13:06;;;;;;;;;10.00;10.00;;;;;;;;5145452;28;8858;-73
2022/10/12 04:15:37;;;;;;;;;3.40;3.40;;;;;;;;5137352;28;8802;-71
2022/10/12 04:18:08;;;;;;;;;5.40;5.40;;;;;;;;5176504;28;8822;-71
2022/10/12 04:20:59;;;;;;;;;5.40;5.40;;;;;;;;5175602;28;8930;-71
2022/10/12 04:23:30;;;;;;;;;5.00;5.00;;;;;;;;5163302;28;8819;-72
2022/10/12 04:26:01;;;;;;;;;5.40;5.40;;;;;;;;5163432;28;8775;-72
2022/10/12 04:28:32;;;;;;;;;17.00;17.00;;;;;;;;5163368;28;8795;-73
2022/10/12 04:31:04;;;;;;;;;7.20;7.20;;;;;;;;5179530;28;8863;-71
2022/10/12 04:33:35;;;;;;;;;17.00;17.00;;;;;;;;5162129;28;8847;-71
2022/10/12 04:36:06;;;;;;;;;18.60;18.40;;;;;;;;5153859;28;8816;-70
2022/10/12 04:38:37;;;;;;;;;10.40;10.40;;;;;;;;5161392;28;8799;-69
2022/10/12 04:41:08;;;;;;;;;18.80;18.80;;;;;;;;5160891;28;8811;-70
2022/10/12 04:43:39;;;;;;;;;13.80;13.80;;;;;;;;5162537;28;8839;-70
2022/10/12 04:46:10;;;;;;;;;18.00;18.00;;;;;;;;5177461;28;8930;-70
2022/10/12 04:48:41;;;;;;;;;21.00;21.00;;;;;;;;5161648;28;8815;-70
2022/10/12 04:51:13;;;;;;;;;29.40;28.80;;;;;;;;5161516;28;8807;-71
2022/10/12 04:53:44;;;;;;;;;14.00;14.00;;;;;;;;5133524;28;8817;-71
2022/10/12 04:56:15;;;;;;;;;14.00;14.00;;;;;;;;5136200;28;8839;-70
2022/10/12 04:58:46;;;;;;;;;6.00;6.00;;;;;;;;5161619;28;9729;-70
2022/10/12 05:01:36;;;;;;;;;14.00;14.00;;;;;;;;5178073;28;8791;-70
2022/10/12 05:04:07;;;;;;;;;15.20;15.20;;;;;;;;5162510;28;9548;-69
2022/10/12 05:06:38;;;;;;;;;19.20;19.00;;;;;;;;5160954;28;8815;-71
2022/10/12 05:09:09;;;;;;;;;22.00;22.00;;;;;;;;5177518;28;8799;-69
2022/10/12 05:11:40;;;;;;;;;45.20;41.80;;;;;;;;5144902;28;11716;-71
2022/10/12 05:14:11;;;;;;;;;50.40;45.00;;;;;;;;5160375;28;9573;-71
2022/10/12 05:16:42;;;;;;;;;46.60;42.20;;;;;;;;5159865;28;8827;-69
2022/10/12 05:19:14;;;;;;;;;41.20;37.20;;;;;;;;5160423;28;8893;-69
2022/10/12 05:21:45;;;;;;;;;26.00;25.60;;;;;;;;5158193;28;8839;-69
2022/10/12 05:24:16;;;;;;;;;19.00;19.00;;;;;;;;5152969;28;8827;-68
2022/10/12 05:26:47;;;;;;;;;29.60;29.60;;;;;;;;5161341;28;8827;-68
2022/10/12 05:29:18;;;;;;;;;56.80;49.20;;;;;;;;5166552;28;8795;-67
2022/10/12 05:31:49;;;;;;;;;18.60;18.60;;;;;;;;5149001;28;8827;-67
2022/10/12 05:34:20;;;;;;;;;29.00;29.00;;;;;;;;5148821;28;8874;-68
2022/10/12 05:36:51;;;;;;;;;16.60;16.60;;;;;;;;5171655;28;8818;-67
2022/10/12 05:39:22;;;;;;;;;17.80;17.80;;;;;;;;5161226;28;8908;-66
2022/10/12 05:41:54;;;;;;;;;12.20;11.40;;;;;;;;5147514;28;8811;-71
2022/10/12 05:44:44;;;;;;;;;16.20;16.20;;;;;;;;5158442;28;8824;-68
2022/10/12 05:47:33;;;;;;;;;0.00;0.00;;;;;;;;5144664;28;8880;-69
2022/10/12 05:50:04;;;;;;;;;8.80;8.80;;;;;;;;5160807;28;8817;-69
2022/10/12 05:52:36;;;;;;;;;34.80;33.40;;;;;;;;5128310;28;8833;-69
2022/10/12 05:55:07;;;;;;;;;19.20;19.20;;;;;;;;5159039;28;8950;-68
2022/10/12 05:57:38;;;;;;;;;24.00;23.20;;;;;;;;5164643;28;9550;-75
2022/10/12 06:00:11;;;;;;;;;13.40;13.40;;;;;;;;5154793;28;8839;-72
2022/10/12 06:02:42;;;;;;;;;15.00;14.80;;;;;;;;5149369;28;8819;-74
2022/10/12 06:05:14;;;;;;;;;21.40;21.40;;;;;;;;5146364;28;8799;-81
2022/10/12 06:07:45;;;;;;;;;27.20;26.80;;;;;;;;5149351;28;8886;-72
2022/10/12 06:10:16;;;;;;;;;13.60;12.40;;;;;;;;5163238;28;8818;-84
2022/10/12 06:12:48;;;;;;;;;30.80;30.80;;;;;;;;5168293;28;8896;-84
2022/10/12 06:15:38;;;;;;;;;36.20;35.20;;;;;;;;5153589;28;8907;-82
2022/10/12 06:18:09;;;;;;;;;20.20;20.20;;;;;;;;5170302;28;8807;-81
2022/10/12 06:20:59;;;;;;;;;10.40;10.40;;;;;;;;5168706;28;8819;-78
2022/10/12 06:23:31;;;;;;;;;14.20;14.20;;;;;;;;5177877;28;8805;-85
2022/10/12 06:26:04;;;;;;;;;6.00;6.00;;;;;;;;5181439;28;8811;-79
2022/10/12 06:28:35;;;;;;;;;11.60;11.60;;;;;;;;5149817;28;8962;-79
2022/10/12 06:31:07;;;;;;;;;15.40;15.00;;;;;;;;5148781;28;8968;-86
2022/10/12 06:33:38;;;;;;;;;13.20;13.20;;;;;;;;5169422;28;8837;-80
2022/10/12 06:36:10;;;;;;;;;7.60;7.60;;;;;;;;5148610;28;8837;-84
2022/10/12 06:38:59;;;;;;;;;9.80;9.80;;;;;;;;5151336;28;8842;-78
2022/10/12 06:41:31;;;;;;;;;8.00;7.00;;;;;;;;5175265;28;8815;-74
2022/10/12 06:44:02;;;;;;;;;10.20;10.20;;;;;;;;5164623;28;8823;-78
2022/10/12 06:46:33;;;;;;;;;13.20;13.20;;;;;;;;5165217;28;8791;-75
2022/10/12 06:49:04;;;;;;;;;7.80;7.80;;;;;;;;5163843;28;8841;-77
2022/10/12 06:51:35;;;;;;;;;7.00;7.00;;;;;;;;5146534;28;9562;-75
2022/10/12 06:54:24;;;;;;;;;12.80;12.80;;;;;;;;5151256;28;9514;-76
2022/10/12 06:56:55;;;;;;;;;48.40;42.40;;;;;;;;5179044;28;8827;-76
2022/10/12 06:59:26;;;;;;;;;32.00;29.60;;;;;;;;5154919;28;8873;-75
2022/10/12 07:01:58;;;;;;;;;26.60;26.60;;;;;;;;5163905;28;8806;-77
2022/10/12 07:04:29;;;;;;;;;13.60;13.60;;;;;;;;5164110;28;8787;-77
2022/10/12 07:07:00;;;;;;;;;20.00;20.00;;;;;;;;5164334;28;8795;-81
2022/10/12 07:09:31;;;;;;;;;18.40;18.40;;;;;;;;5172458;28;8811;-77
2022/10/12 07:12:03;;;;;;;;;23.80;23.80;;;;;;;;5169088;28;8826;-75
2022/10/12 07:14:34;;;;;;;;;17.40;17.40;;;;;;;;5172827;28;8880;-76
2022/10/12 07:17:05;;;;;;;;;21.80;21.80;;;;;;;;5149595;28;8837;-79
2022/10/12 07:19:36;;;;;;;;;33.00;32.60;;;;;;;;5166720;28;8795;-78
2022/10/12 07:22:07;;;;;;;;;13.00;13.00;;;;;;;;5177829;28;8811;-80
2022/10/12 07:24:57;;;;;;;;;1.00;0.00;;;;;;;;5180041;28;8806;-82
2022/10/12 07:27:28;;;;;;;;;13.80;13.80;;;;;;;;5178959;28;8811;-79
2022/10/12 07:29:59;;;;;;;;;13.80;13.80;;;;;;;;5143442;28;8826;-77
2022/10/12 07:32:31;;;;;;;;;14.80;14.80;;;;;;;;5159916;28;8853;-84
2022/10/12 07:35:03;;;;;;;;;12.00;12.00;;;;;;;;5159563;28;8835;-85
2022/10/12 07:37:34;;;;;;;;;7.00;7.00;;;;;;;;5115800;28;8819;-82
2022/10/12 07:40:06;;;;;;;;;77.60;62.80;;;;;;;;5158326;28;8856;-77
2022/10/12 07:42:37;;;;;;;;;9.00;9.00;;;;;;;;5172917;28;8829;-80
2022/10/12 07:45:08;;;;;;;;;17.00;16.40;;;;;;;;5141705;28;8888;-75
2022/10/12 07:47:40;;;;;;;;;25.80;25.80;;;;;;;;5155611;28;8821;-75
2022/10/12 07:50:11;;;;;;;;;32.40;32.40;;;;;;;;5174250;28;8941;-75
2022/10/12 07:52:42;;;;;;;;;54.20;46.00;;;;;;;;5162602;28;8881;-73
2022/10/12 07:55:13;;;;;;;;;27.60;27.60;;;;;;;;5159872;28;8952;-77
2022/10/12 07:57:44;;;;;;;;;50.00;41.60;;;;;;;;5161352;28;8807;-77
2022/10/12 08:00:15;;;;;;;;;13.20;13.20;;;;;;;;5178484;28;8889;-84
2022/10/12 08:02:46;;;;;;;;;10.80;10.80;;;;;;;;5163937;28;8823;-82
2022/10/12 08:05:20;;;;;;;;;14.60;14.60;;;;;;;;5163261;28;8941;-84
2022/10/12 08:08:09;;;;;;;;;11.20;11.20;;;;;;;;5177430;28;9498;-86
2022/10/12 08:10:40;;;;;;;;;28.50;28.50;;;;;;;;5161096;28;8862;-87
2022/10/12 08:13:11;;;;;;;;;31.40;30.80;;;;;;;;5163621;28;11487;-83
2022/10/12 08:15:47;;;;;;;;;15.40;15.40;;;;;;;;5163658;28;8815;-84
2022/10/12 08:18:18;;;;;;;;;39.20;37.20;;;;;;;;5164014;28;8796;-87
2022/10/12 08:20:49;;;;;;;;;30.25;30.25;;;;;;;;5162632;28;8811;-84
2022/10/12 08:23:20;;;;;;;;;13.50;11.00;;;;;;;;5147448;28;9519;-86
2022/10/12 08:26:09;;;;;;;;;15.00;15.00;;;;;;;;5150286;28;8807;-84
2022/10/12 08:28:41;;;;;;;;;11.20;11.20;;;;;;;;5156695;28;8841;-84
2022/10/12 08:31:14;;;;;;;;;12.00;12.00;;;;;;;;5158537;28;8865;-84
2022/10/12 08:33:45;;;;;;;;;10.40;10.40;;;;;;;;5162315;28;8889;-85
2022/10/12 08:36:15;;;;;;;;;18.00;18.00;;;;;;;;5163045;28;8827;-83
2022/10/12 08:38:51;;;;;;;;;13.25;13.25;;;;;;;;5146270;28;8829;-78
2022/10/12 08:41:22;;;;;;;;;58.60;50.60;;;;;;;;5176077;28;8967;-76
2022/10/12 08:43:59;;;;;;;;;28.00;28.00;;;;;;;;5157368;28;8818;-82
2022/10/12 08:46:30;;;;;;;;;23.40;23.40;;;;;;;;5174263;28;9562;-80
2022/10/12 08:49:14;;;;;;;;;27.00;27.00;;;;;;;;5144645;28;8815;-79
2022/10/12 08:52:05;;;;;;;;;22.40;22.40;;;;;;;;5161573;28;8831;-79
2022/10/12 08:54:42;;;;;;;;;32.80;32.80;;;;;;;;5159139;28;9545;-82
2022/10/12 08:57:17;;;;;;;;;54.20;45.80;;;;;;;;5162633;28;8881;-81
2022/10/12 08:59:48;;;;;;;;;19.40;19.40;;;;;;;;5145578;28;8871;-80
2022/10/12 09:02:19;;;;;;;;;11.00;10.50;;;;;;;;5162365;28;8862;-85
2022/10/12 09:05:13;;;;;;;;;9.60;9.60;;;;;;;;5157651;28;8813;-80
2022/10/12 09:07:53;;;;;;;;;10.00;10.00;;;;;;;;5156401;28;8803;-81
2022/10/12 09:10:33;;;;;;;;;16.20;16.20;;;;;;;;5154459;28;8938;-77
2022/10/12 09:13:12;;;;;;;;;12.20;12.20;;;;;;;;5158958;28;8870;-78
2022/10/12 09:15:48;;;;;;;;;21.20;21.20;;;;;;;;5147555;28;8830;-76
2022/10/12 09:18:33;;;;;;;;;12.60;12.60;;;;;;;;5164337;28;8857;-73
2022/10/12 09:21:06;;;;;;;;;5.25;5.25;;;;;;;;5163786;28;9554;-84
2022/10/12 09:23:38;;;;;;;;;5.75;5.75;;;;;;;;5159168;28;8809;-83
2022/10/12 09:26:21;;;;;;;;;5.00;5.00;;;;;;;;5174247;28;8881;-77
2022/10/12 09:28:56;;;;;;;;;11.00;11.00;;;;;;;;5146862;28;8807;-77
2022/10/12 09:31:36;;;;;;;;;11.00;11.00;;;;;;;;5162811;28;8827;-76
2022/10/12 09:34:08;;;;;;;;;13.00;13.00;;;;;;;;5162980;28;8763;-77
2022/10/12 09:36:40;;;;;;;;;9.00;9.00;;;;;;;;5163074;28;8799;-81
2022/10/12 09:39:14;;;;;;;;;5.00;4.25;;;;;;;;5151154;28;8800;-78
2022/10/12 09:41:47;;;;;;;;;11.00;11.00;;;;;;;;5162411;28;8803;-78
2022/10/12 09:44:21;;;;;;;;;17.00;17.00;;;;;;;;5163101;28;8783;-76
2022/10/12 09:46:57;;;;;;;;;56.60;45.80;;;;;;;;5175628;28;8826;-78
2022/10/12 09:49:49;;;;;;;;;15.25;14.75;;;;;;;;5152938;28;9595;-75
2022/10/12 09:52:29;;;;;;;;;16.50;15.75;;;;;;;;5178859;28;8866;-72
2022/10/12 09:55:02;;;;;;;;;19.40;19.40;;;;;;;;5146179;28;8806;-74
2022/10/12 09:57:35;;;;;;;;;11.50;11.50;;;;;;;;5162576;28;8799;-83
2022/10/12 10:00:25;;;;;;;;;11.50;11.00;;;;;;;;5162459;28;8851;-72
2022/10/12 10:02:56;;;;;;;;;12.25;11.50;;;;;;;;5163101;28;9573;-72
2022/10/12 10:05:27;;;;;;;;;13.00;12.50;;;;;;;;5158094;28;8790;-74
2022/10/12 10:08:13;;;;;;;;;5.50;5.50;;;;;;;;5132379;28;8917;-77
2022/10/12 10:10:55;;;;;;;;;13.00;13.00;;;;;;;;5132378;28;8984;-79
2022/10/12 10:13:27;;;;;;;;;10.00;10.00;;;;;;;;5166020;28;8807;-81
2022/10/12 10:16:03;;;;;;;;;23.20;22.20;;;;;;;;5165330;28;8876;-82
2022/10/12 10:18:52;;;;;;;;;69.00;55.60;;;;;;;;5166067;28;8767;-79
2022/10/12 10:21:24;;;;;;;;;23.50;23.00;;;;;;;;5164561;28;8821;-78
2022/10/12 10:24:06;;;;;;;;;24.80;24.80;;;;;;;;5165270;28;12227;-79
2022/10/12 10:27:09;;;;;;;;;14.20;14.20;;;;;;;;5166083;28;8810;-78
2022/10/12 10:29:41;;;;;;;;;21.40;21.00;;;;;;;;5134059;28;8807;-76
2022/10/12 10:32:28;;;;;;;;;18.60;18.60;;;;;;;;5165868;28;8941;-76
2022/10/12 10:35:18;;;;;;;;;44.20;38.20;;;;;;;;5165940;28;8803;-80
2022/10/12 10:37:50;;;;;;;;;28.00;28.00;;;;;;;;5167135;28;8922;-82
2022/10/12 10:40:26;;;;;;;;;19.40;19.40;;;;;;;;5166042;28;8780;-80
2022/10/12 10:43:02;;;;;;;;;15.20;15.20;;;;;;;;5200557;28;8813;-81
2022/10/12 10:45:39;;;;;;;;;10.00;10.00;;;;;;;;5199392;28;8787;-80
2022/10/12 10:48:14;;;;;;;;;9.60;9.40;;;;;;;;5166662;28;9482;-80
2022/10/12 10:50:50;;;;;;;;;14.40;14.40;;;;;;;;5182228;28;8787;-78
2022/10/12 10:53:23;;;;;;;;;16.60;15.20;;;;;;;;5165533;28;8866;-78
2022/10/12 10:56:00;;;;;;;;;10.40;10.40;;;;;;;;5165635;28;8857;-79
2022/10/12 10:58:36;;;;;;;;;10.00;10.00;;;;;;;;5149146;28;8803;-79
2022/10/12 11:01:21;;;;;;;;;9.60;9.60;;;;;;;;5165362;28;8803;-78
2022/10/12 11:03:52;;;;;;;;;15.60;15.60;;;;;;;;5166529;28;8815;-78
2022/10/12 11:06:26;;;;;;;;;15.50;15.50;;;;;;;;5149322;28;8807;-79
2022/10/12 11:09:00;;;;;;;;;10.40;10.40;;;;;;;;5165456;28;11555;-78
2022/10/12 11:11:33;;;;;;;;;6.75;6.75;;;;;;;;5165029;28;8957;-79
2022/10/12 11:14:15;;;;;;;;;12.00;12.00;;;;;;;;5181153;28;8807;-80
2022/10/12 11:17:02;;;;;;;;;18.60;18.40;;;;;;;;5165759;28;9666;-80
2022/10/12 11:19:35;;;;;;;;;14.40;14.40;;;;;;;;5148893;28;8826;-79
2022/10/12 11:22:20;;;;;;;;;37.60;34.60;;;;;;;;5166061;28;8838;-79
2022/10/12 11:24:54;;;;;;;;;42.80;38.20;;;;;;;;5165253;28;8783;-79
2022/10/12 11:27:30;;;;;;;;;35.40;33.80;;;;;;;;5164925;28;8795;-79
2022/10/12 11:30:24;;;;;;;;;29.60;29.60;;;;;;;;5165915;28;8795;-79
2022/10/12 11:33:04;;;;;;;;;28.80;28.80;;;;;;;;5165740;28;8823;-76
2022/10/12 11:35:36;;;;;;;;;27.20;25.40;;;;;;;;5165867;28;8877;-76
2022/10/12 11:38:13;;;;;;;;;26.40;25.40;;;;;;;;5181048;28;8811;-78
2022/10/12 11:40:44;;;;;;;;;16.00;14.80;;;;;;;;5164515;28;9479;-80
2022/10/12 11:43:19;;;;;;;;;60.00;49.50;;;;;;;;5164292;28;8803;-78
2022/10/12 11:45:54;;;;;;;;;40.80;37.60;;;;;;;;5164858;28;9518;-79
2022/10/12 11:48:43;;;;;;;;;31.60;30.40;;;;;;;;5165650;28;8803;-77
2022/10/12 11:51:14;;;;;;;;;26.50;24.75;;;;;;;;5164494;28;8936;-81
2022/10/12 11:53:51;;;;;;;;;20.60;19.80;;;;;;;;5167026;28;11630;-82
2022/10/12 11:56:24;;;;;;;;;30.40;30.00;;;;;;;;5165349;28;8802;-81
2022/10/12 11:59:18;;;;;;;;;29.20;28.80;;;;;;;;5163529;28;8939;-83
2022/10/12 12:01:59;;;;;;;;;32.40;31.00;;;;;;;;5142423;28;8798;-86
2022/10/12 12:04:34;;;;;;;;;31.40;31.40;;;;;;;;5142421;28;8879;-82
2022/10/12 12:07:25;;;;;;;;;60.60;50.00;;;;;;;;5159113;28;8885;-80
2022/10/12 12:09:56;;;;;;;;;56.80;48.40;;;;;;;;5177046;28;9589;-78
2022/10/12 12:12:28;;;;;;;;;25.60;24.60;;;;;;;;5164496;28;8831;-78
2022/10/12 12:15:05;;;;;;;;;36.00;34.80;;;;;;;;5165206;28;8771;-78
2022/10/12 12:17:37;;;;;;;;;18.60;18.40;;;;;;;;5162748;28;8941;-76
2022/10/12 12:20:27;;;;;;;;;30.60;29.20;;;;;;;;5147314;28;8804;-77
2022/10/12 12:22:58;;;;;;;;;25.20;24.60;;;;;;;;5157569;28;8934;-76
2022/10/12 12:25:30;;;;;;;;;30.80;30.80;;;;;;;;5147102;28;8826;-81
2022/10/12 12:28:16;;;;;;;;;19.20;19.20;;;;;;;;5162912;28;8815;-73
2022/10/12 12:30:55;;;;;;;;;18.60;18.00;;;;;;;;5142305;28;8829;-81
2022/10/12 12:33:47;;;;;;;;;11.80;11.80;;;;;;;;5165082;28;9588;-78
2022/10/12 12:36:28;;;;;;;;;11.60;11.60;;;;;;;;5170797;28;8921;-85
2022/10/12 12:39:00;;;;;;;;;8.80;8.80;;;;;;;;5143394;28;8809;-82
2022/10/12 12:41:49;;;;;;;;;12.60;12.60;;;;;;;;5151162;28;8873;-77
2022/10/12 12:44:32;;;;;;;;;8.60;8.60;;;;;;;;5163172;28;8799;-76
2022/10/12 12:47:36;;;;;;;;;31.40;29.40;;;;;;;;5164310;28;8882;-74
2022/10/12 12:50:45;;;;;;;;;21.00;21.00;;;;;;;;5164109;28;8869;-82
2022/10/12 12:53:20;;;;;;;;;20.80;18.80;;;;;;;;5086150;29;8855;-75
2022/10/12 12:56:03;;;;;;;;;32.80;31.40;;;;;;;;5101599;29;8816;-73
2022/10/12 12:58:37;;;;;;;;;36.40;34.20;;;;;;;;5143398;28;8854;-73
2022/10/12 13:01:24;;;;;;;;;34.00;33.25;;;;;;;;5162870;28;8943;-73
2022/10/12 13:04:04;;;;;;;;;26.00;26.00;;;;;;;;5165540;28;11124;-76
2022/10/12 13:06:35;;;;;;;;;20.40;20.40;;;;;;;;5146997;28;8807;-74
2022/10/12 13:09:31;;;;;;;;;2.00;1.00;;;;;;;;5162825;28;8843;-75
2022/10/12 13:12:09;;;;;;;;;17.40;17.00;;;;;;;;5159218;28;8874;-80
2022/10/12 13:15:13;;;;;;;;;16.20;15.60;;;;;;;;5142625;28;9567;-77
2022/10/12 13:18:02;;;;;;;;;17.20;16.20;;;;;;;;5131660;28;8815;-75
2022/10/12 13:20:36;;;;;;;;;14.80;12.80;;;;;;;;5158555;28;8844;-83
2022/10/12 13:23:08;;;;;;;;;15.20;15.20;;;;;;;;5143467;28;8956;-77
2022/10/12 13:26:04;;;;;;;;;9.80;9.80;;;;;;;;5155433;28;8835;-77
2022/10/12 13:28:41;;;;;;;;;12.60;12.60;;;;;;;;5159046;28;8921;-77
2022/10/12 13:31:27;;;;;;;;;11.20;10.20;;;;;;;;5141953;28;8850;-74
2022/10/12 13:34:11;;;;;;;;;9.80;9.80;;;;;;;;5157609;28;8815;-78
2022/10/12 13:36:51;;;;;;;;;55.40;43.60;;;;;;;;5146738;28;8934;-75
2022/10/12 13:39:22;;;;;;;;;37.40;33.80;;;;;;;;5164255;28;8791;-81
2022/10/12 13:41:55;;;;;;;;;63.25;51.25;;;;;;;;5170411;28;9531;-73
2022/10/12 13:44:34;;;;;;;;;17.20;17.00;;;;;;;;5161904;28;8852;-79
2022/10/12 13:47:24;;;;;;;;;23.60;23.60;;;;;;;;5170766;28;8798;-79
2022/10/12 13:49:55;;;;;;;;;12.50;12.50;;;;;;;;5143925;28;8834;-78
2022/10/12 13:52:30;;;;;;;;;17.40;17.40;;;;;;;;5145249;28;8919;-78
2022/10/12 13:55:23;;;;;;;;;25.80;25.40;;;;;;;;5179339;28;9712;-80
2022/10/12 13:57:54;;;;;;;;;16.20;14.80;;;;;;;;5162596;28;8807;-78
2022/10/12 14:00:25;;;;;;;;;24.25;23.75;;;;;;;;5131473;28;8826;-75
2022/10/12 14:02:58;;;;;;;;;46.20;40.60;;;;;;;;5159148;28;11536;-80
2022/10/12 14:05:30;;;;;;;;;323.25;222.50;;;;;;;;5161734;28;8826;-79
2022/10/12 14:08:05;;;;;;;;;35.60;34.00;;;;;;;;5198887;28;10177;-81
2022/10/12 14:10:37;;;;;;;;;44.80;40.20;;;;;;;;5181659;28;8827;-80
2022/10/12 14:13:13;;;;;;;;;21.00;20.00;;;;;;;;5146133;28;8798;-78
2022/10/12 14:16:04;;;;;;;;;13.80;13.80;;;;;;;;5164361;28;8815;-90
2022/10/12 14:18:37;;;;;;;;;13.50;13.50;;;;;;;;5162860;28;8807;-85
2022/10/12 14:21:15;;;;;;;;;10.75;10.75;;;;;;;;5163000;28;8804;-80
2022/10/12 14:23:48;;;;;;;;;10.00;10.00;;;;;;;;5156632;28;8825;-83
2022/10/12 14:26:23;;;;;;;;;34.00;31.60;;;;;;;;5156724;28;8799;-80
2022/10/12 14:28:54;;;;;;;;;15.20;15.20;;;;;;;;5155750;28;9619;-80
2022/10/12 14:31:44;;;;;;;;;11.50;11.50;;;;;;;;5161945;28;8853;-78
2022/10/12 14:34:35;;;;;;;;;13.00;13.00;;;;;;;;5176837;28;8814;-75
2022/10/12 14:37:12;;;;;;;;;16.20;16.20;;;;;;;;5161147;28;9538;-74
2022/10/12 14:39:44;;;;;;;;;15.00;15.00;;;;;;;;5161099;28;8832;-78
2022/10/12 14:42:18;;;;;;;;;26.20;25.80;;;;;;;;5178761;28;8810;-76
2022/10/12 14:45:20;;;;;;;;;24.20;23.00;;;;;;;;5162824;28;8849;-81
2022/10/12 14:47:51;;;;;;;;;26.20;26.20;;;;;;;;5160861;28;8799;-77
2022/10/12 14:50:22;;;;;;;;;19.20;19.20;;;;;;;;5162501;28;8930;-77
2022/10/12 14:53:13;;;;;;;;;18.60;18.60;;;;;;;;5163732;28;8819;-78
2022/10/12 14:55:44;;;;;;;;;12.00;12.00;;;;;;;;5145864;28;8826;-76
2022/10/12 14:58:16;;;;;;;;;12.00;12.00;;;;;;;;5145856;28;8847;-78
2022/10/12 15:01:05;;;;;;;;;16.80;16.60;;;;;;;;5161546;28;11517;-78
2022/10/12 15:03:38;;;;;;;;;22.60;22.60;;;;;;;;5145711;28;8842;-79
2022/10/12 15:06:12;;;;;;;;;20.80;20.80;;;;;;;;5163465;28;8834;-76
2022/10/12 15:08:43;;;;;;;;;20.20;20.20;;;;;;;;5161325;28;8791;-79
2022/10/12 15:11:14;;;;;;;;;15.25;15.25;;;;;;;;5162844;28;8846;-79
2022/10/12 15:13:46;;;;;;;;;21.60;20.80;;;;;;;;5146997;28;10067;-82
2022/10/12 15:16:22;;;;;;;;;14.80;14.80;;;;;;;;5147568;28;9571;-84
2022/10/12 15:18:53;;;;;;;;;12.80;12.80;;;;;;;;5163112;28;8953;-84
2022/10/12 15:21:24;;;;;;;;;9.75;9.75;;;;;;;;5179339;28;8941;-80
2022/10/12 15:23:55;;;;;;;;;4.00;4.00;;;;;;;;5145448;28;11506;-86
2022/10/12 15:26:26;;;;;;;;;15.20;14.40;;;;;;;;5162351;28;8881;-77
2022/10/12 15:29:16;;;;;;;;;46.00;40.00;;;;;;;;5160462;28;8831;-82